Huntsdale, Missouri
Current Conditions -  °F | °C
As of 7:01 AM on Saturday 25 Oct 2014 (Local Time) from KCOU Reporting Station
Haze Haze  
Wind Chill: 57°   Ceiling: 1000
Heat Index: 57°   Visibility: 0.75mi
Dew Point: 57°   Wind: 3mph
Humidity: 100%   Direction: 250°WSW
Pressure: 30.03"   Gusts: NA
Location:  38.895°N, 92.3958°W
Report Text: KCOU 251201Z 25003KT 3/4SM BR VV010 14/14 A3003 RMK AO2 T01390139 $
Loading
Personal Weather Stations






























Interactive Weather Map
Tropical Storm Tracking
New forecast layout! Learn more

10-Day Weather Forecast

Advertisements
Track Severe Weather on mobile